Huvudsida
METAR-TAF:

METAR-TAF

Flygplatser :

Taba International Airport

Taba, Egypten

latitud: 29-35-57N, longitud: 034-46-36E, höjd: 749 m

METAR: saknas

Tid: 00:25 (22:25 UTC)

Väderprognos

Denna rapport gjordes för 5 timmar och 25 minuter sedan, klockan 17:00 UTC
Prognos gäller från 08 kl. 18 UTC till 09 kl. 24 UTC
Vind 12 kt från nord
Sikt 10 km eller mer
Inga moln under 1 500 m eller inga cumulonimbus

TAF: HETB 081700Z 0818/0924 36012KT CAVOK

Aktuella väderrapporter och prognoser från 4000 flygplatser (METAR- och TAF-rapporter).

De tillgängliga stationerna syns som gula och röda prickar på kartan.

För musen över prickarna för att se namnen på stationerna.

Klicka sedan för att få väderrapporter och prognoser.

För att ändra kartan: Klicka på de gröna knapparna med ett svart kors på för att zooma in; den gröna knappen med ett streck på för att zooma ut; eller på de gröna pilarna för angränsande kartor.


METAR-TAF: